createdAt,value
2023-05-10T00:04:04.215Z,13.41
2023-05-10T00:10:24.202Z,13.41
2023-05-10T00:16:47.215Z,13.4
2023-05-10T00:23:07.176Z,13.41
2023-05-10T00:29:30.157Z,13.41
2023-05-10T00:35:50.222Z,13.42
2023-05-10T00:42:13.158Z,13.46
2023-05-10T00:48:33.158Z,13.52
2023-05-10T00:54:56.236Z,13.57
2023-05-10T01:01:16.181Z,13.57
2023-05-10T01:07:39.169Z,13.54
2023-05-10T01:13:59.247Z,13.53
2023-05-10T01:20:22.149Z,13.53
2023-05-10T01:26:42.204Z,13.54
2023-05-10T01:33:05.251Z,13.54
2023-05-10T01:39:25.199Z,13.54
2023-05-10T01:45:48.146Z,13.56
2023-05-10T01:52:08.292Z,13.58
2023-05-10T01:58:31.146Z,13.56
2023-05-10T02:04:51.176Z,13.57
2023-05-10T02:11:14.318Z,13.52
2023-05-10T02:17:34.193Z,13.47
2023-05-10T02:23:57.212Z,13.46
2023-05-10T02:30:17.401Z,13.44
2023-05-10T02:36:40.176Z,13.42
2023-05-10T02:43:00.227Z,13.42
2023-05-10T02:49:23.170Z,13.44
2023-05-10T02:55:43.235Z,13.44
2023-05-10T03:02:06.149Z,13.43
2023-05-10T03:08:26.236Z,13.4
2023-05-10T03:14:49.169Z,13.39
2023-05-10T03:21:09.215Z,13.37
2023-05-10T03:27:32.195Z,13.37
2023-05-10T03:43:40.087Z,13.35
2023-05-10T03:50:00.279Z,13.3
2023-05-10T03:56:23.218Z,13.24
2023-05-10T04:02:43.331Z,13.2
2023-05-10T04:09:06.161Z,13.19
2023-05-10T04:15:26.198Z,13.2
2023-05-10T04:21:49.236Z,13.22
2023-05-10T04:28:09.201Z,13.29
2023-05-10T04:34:32.213Z,13.34
2023-05-10T04:40:52.186Z,13.4
2023-05-10T04:47:15.172Z,13.47
2023-05-10T04:53:35.163Z,13.46
2023-05-10T04:59:58.200Z,13.44
2023-05-10T05:06:18.156Z,13.44
2023-05-10T05:12:41.168Z,13.46
2023-05-10T05:19:01.206Z,13.52
2023-05-10T05:25:24.174Z,13.63
2023-05-10T05:31:44.239Z,13.72
2023-05-10T05:38:07.177Z,13.83
2023-05-10T05:44:27.168Z,13.9
2023-05-10T05:50:50.197Z,13.9
2023-05-10T05:57:10.177Z,13.97
2023-05-10T06:03:33.229Z,14.04
2023-05-10T06:09:53.146Z,14.14
2023-05-10T06:16:16.205Z,14.21
2023-05-10T06:22:36.174Z,14.21
2023-05-10T06:28:59.175Z,14.31
2023-05-10T06:35:19.333Z,14.41
2023-05-10T06:41:42.149Z,14.48
2023-05-10T06:48:02.225Z,14.46
2023-05-10T06:54:25.204Z,14.58
2023-05-10T07:00:45.175Z,14.65
2023-05-10T07:07:08.173Z,14.56
2023-05-10T07:13:28.295Z,14.47
2023-05-10T07:19:51.174Z,14.43
2023-05-10T07:26:11.188Z,14.39
2023-05-10T07:32:34.253Z,14.4
2023-05-10T07:38:54.194Z,14.4
2023-05-10T07:45:17.268Z,14.44
2023-05-10T07:51:37.187Z,14.59
2023-05-10T07:58:00.224Z,14.71
2023-05-10T08:04:20.190Z,14.69
2023-05-10T08:10:43.220Z,14.66
2023-05-10T08:17:03.274Z,14.59
2023-05-10T08:23:26.383Z,14.63
2023-05-10T08:29:49.882Z,14.66
2023-05-10T08:36:09.155Z,14.71
2023-05-10T08:42:29.186Z,14.78
2023-05-10T08:48:52.187Z,14.82
2023-05-10T08:55:12.248Z,15.06
2023-05-10T09:17:42.257Z,15.74
2023-05-10T09:24:05.164Z,15.94
2023-05-10T09:30:25.200Z,16.01
2023-05-10T09:36:48.202Z,15.59
2023-05-10T09:43:08.198Z,15.41
2023-05-10T09:49:31.163Z,15.22
2023-05-10T09:55:51.226Z,15.25
2023-05-10T10:02:14.194Z,15.37
2023-05-10T10:08:34.214Z,15.54
2023-05-10T10:14:57.250Z,15.68
2023-05-10T10:21:17.157Z,15.74
2023-05-10T10:27:40.209Z,15.93
2023-05-10T10:34:00.213Z,16.21
2023-05-10T10:40:23.180Z,16.59
2023-05-10T10:46:43.295Z,16.95
2023-05-10T10:53:06.249Z,17.05
2023-05-10T10:59:27.395Z,16.95
2023-05-10T11:05:50.460Z,16.68
2023-05-10T11:12:10.202Z,16.47
2023-05-10T11:18:33.234Z,16.48
2023-05-10T11:24:53.175Z,16.62
2023-05-10T11:31:16.244Z,16.88
2023-05-10T11:37:36.156Z,16.78
2023-05-10T11:43:59.185Z,16.88
2023-05-10T11:50:19.502Z,17.11
2023-05-10T11:56:42.207Z,17.25
2023-05-10T12:03:02.348Z,17.25
2023-05-10T12:09:35.870Z,17.29
2023-05-10T12:15:45.205Z,17.32
2023-05-10T12:22:08.180Z,17.36
2023-05-10T12:28:28.190Z,17.54
2023-05-10T12:34:51.212Z,17.83
2023-05-10T12:41:11.208Z,17.92
2023-05-10T12:47:34.524Z,17.91
2023-05-10T12:53:54.187Z,18.07
2023-05-10T13:00:17.333Z,18.09
2023-05-10T13:06:37.249Z,18.15
2023-05-10T13:13:00.180Z,18.28
2023-05-10T13:19:20.209Z,18.24
2023-05-10T13:25:43.254Z,18.08
2023-05-10T13:32:03.187Z,17.83
2023-05-10T13:38:26.180Z,17.5
2023-05-10T13:44:46.199Z,17.33
2023-05-10T13:51:09.195Z,17.21
2023-05-10T13:57:29.152Z,17.21
2023-05-10T14:03:52.268Z,17.18
2023-05-10T14:10:12.161Z,17.11
2023-05-10T14:16:35.215Z,16.98
2023-05-10T14:33:00.188Z,16.89
2023-05-10T14:39:20.151Z,16.94
2023-05-10T14:45:43.172Z,16.94
2023-05-10T14:52:03.202Z,16.89
2023-05-10T14:58:26.169Z,16.8
2023-05-10T15:04:46.184Z,16.55
2023-05-10T15:11:09.189Z,16.44
2023-05-10T15:17:29.191Z,16.43
2023-05-10T15:23:52.214Z,16.93
2023-05-10T15:30:12.212Z,17.86
2023-05-10T15:36:35.174Z,18.67
2023-05-10T15:42:55.193Z,19.36
2023-05-10T15:49:18.179Z,19.66
2023-05-10T15:55:38.182Z,19.6
2023-05-10T16:02:01.203Z,19.14
2023-05-10T16:08:21.215Z,18.54
2023-05-10T16:14:44.180Z,17.96
2023-05-10T16:21:04.160Z,17.51
2023-05-10T16:27:27.224Z,17.19
2023-05-10T16:33:47.150Z,16.84
2023-05-10T16:40:10.163Z,16.8
2023-05-10T16:46:30.271Z,16.9
2023-05-10T16:52:53.181Z,16.88
2023-05-10T16:59:13.197Z,17.03
2023-05-10T17:05:36.211Z,17.15
2023-05-10T17:11:56.190Z,17.16
2023-05-10T17:18:19.221Z,17.09
2023-05-10T17:24:39.246Z,17.16
2023-05-10T17:31:02.273Z,17.39
2023-05-10T17:37:22.210Z,17.41
2023-05-10T17:43:45.279Z,17.46
2023-05-10T17:50:05.202Z,17.63
2023-05-10T17:56:28.181Z,17.63
2023-05-10T18:02:48.279Z,17.52
2023-05-10T18:09:11.259Z,17.37
2023-05-10T18:15:31.175Z,16.97
2023-05-10T18:21:54.227Z,16.74
2023-05-10T18:28:14.178Z,16.36
2023-05-10T18:34:37.214Z,16.14
2023-05-10T18:40:57.231Z,15.9
2023-05-10T18:47:20.151Z,15.76
2023-05-10T18:53:40.263Z,15.59
2023-05-10T19:00:03.191Z,15.44
2023-05-10T19:06:23.190Z,15.29
2023-05-10T19:12:46.272Z,15.13
2023-05-10T19:19:08.687Z,15.07
2023-05-10T19:25:33.254Z,15.02
2023-05-10T19:31:53.241Z,14.98
2023-05-10T19:38:16.182Z,14.93
2023-05-10T20:01:57.695Z,14.65
2023-05-10T20:08:17.138Z,14.55
2023-05-10T20:14:40.167Z,14.4
2023-05-10T20:21:00.201Z,14.26
2023-05-10T20:27:23.176Z,14.16
2023-05-10T20:33:43.189Z,14.13
2023-05-10T20:40:06.217Z,14.1
2023-05-10T20:46:26.206Z,13.96
2023-05-10T20:52:49.195Z,13.82
2023-05-10T20:59:09.194Z,13.76
2023-05-10T21:05:32.241Z,13.79
2023-05-10T21:11:52.165Z,13.79
2023-05-10T21:18:15.225Z,13.83
2023-05-10T21:24:35.241Z,13.8
2023-05-10T21:30:58.162Z,13.75
2023-05-10T21:37:18.218Z,13.73
2023-05-10T21:43:41.179Z,13.7
2023-05-10T21:50:01.159Z,13.59
2023-05-10T21:56:24.223Z,13.51
2023-05-10T22:20:39.192Z,13.44
2023-05-10T22:26:59.145Z,13.5
2023-05-10T22:33:22.185Z,13.58
2023-05-10T22:39:42.187Z,13.6
2023-05-10T22:46:05.208Z,13.55
2023-05-10T22:52:25.144Z,13.48
2023-05-10T22:58:48.224Z,13.47
2023-05-10T23:05:08.219Z,13.47
2023-05-10T23:11:31.246Z,13.25
2023-05-10T23:17:51.246Z,13.15
2023-05-10T23:24:14.170Z,13.11
2023-05-10T23:30:34.224Z,13.16
2023-05-10T23:36:57.193Z,13.23
2023-05-10T23:43:17.202Z,13.3
2023-05-10T23:49:40.192Z,13.32
2023-05-10T23:56:00.201Z,13.1
